Time;durP1;ratioP1;P1;durP2;ratioP2;P2;SDS_P1;SDS_P2;PMS_P1;PMS_P2;Temp;Humidity;BMP_temperature;BMP_pressure;BME280_temperature;BME280_humidity;BME280_pressure;Samples;Min_cycle;Max_cycle;Signal;HPM_P1;HPM_P2
2024/02/10 00:01:36;;;;;;;;;;;;;;;;;;4164486;28;20435;-68
2024/02/10 00:03:39;;;;;;;;;;;;;;;;;;4164403;28;19925;-68
2024/02/10 00:05:45;;;;;;;;;;;;;;;;;;4164510;28;19968;-68
2024/02/10 00:07:52;;;;;;;;;;;;;;;;;;4164375;28;19924;-68
2024/02/10 00:09:55;;;;;;;;;;;;;;;;;;4166369;28;19925;-70
2024/02/10 00:11:58;;;;;;;;;;;;;;;;;;4180799;28;19932;-69
2024/02/10 00:13:59;;;;;;;;;;;;;;;;;;4180815;28;19925;-69
2024/02/10 00:16:01;;;;;;;;;;;;;;;;;;4180814;28;20000;-69
2024/02/10 00:18:05;;;;;;;;;;;;;;;;;;4165842;28;19921;-69
2024/02/10 00:20:09;;;;;;;;;;;;;;;;;;4148064;28;19961;-69
2024/02/10 00:22:11;;;;;;;;;;;;;;;;;;4161939;28;19928;-69
2024/02/10 00:24:12;;;;;;;;;;;;;;;;;;4164374;28;19964;-69
2024/02/10 00:26:18;;;;;;;;;;;;;;;;;;4164227;28;19925;-69
2024/02/10 00:28:19;;;;;;;;;;;;;;;;;;4164453;28;20344;-69
2024/02/10 00:30:23;;;;;;;;;;;;;;;;;;4164213;28;19925;-68
2024/02/10 00:32:24;;;;;;;;;;;;;;;;;;4164219;28;19928;-69
2024/02/10 00:34:29;;;;;;;;;;;;;;;;;;4164392;28;19921;-69
2024/02/10 00:36:31;;;;;;;;;;;;;;;;;;4164239;28;19986;-69
2024/02/10 00:38:32;;;;;;;;;;;;;;;;;;4164324;28;19921;-69
2024/02/10 00:40:34;;;;;;;;;;;;;;;;;;4164144;28;20365;-68
2024/02/10 00:42:35;;;;;;;;;;;;;;;;;;4164074;28;19921;-69
2024/02/10 00:44:38;;;;;;;;;;;;;;;;;;4164206;28;20291;-69
2024/02/10 00:46:41;;;;;;;;;;;;;;;;;;4163892;28;19978;-69
2024/02/10 00:48:43;;;;;;;;;;;;;;;;;;4164677;28;19925;-69
2024/02/10 00:50:45;;;;;;;;;;;;;;;;;;4167047;28;19972;-69
2024/02/10 00:52:48;;;;;;;;;;;;;;;;;;4166046;28;19925;-69
2024/02/10 00:54:49;;;;;;;;;;;;;;;;;;4167348;28;20003;-69
2024/02/10 00:56:51;;;;;;;;;;;;;;;;;;4167244;28;19960;-69
2024/02/10 00:58:52;;;;;;;;;;;;;;;;;;4167234;28;20360;-69
2024/02/10 01:00:54;;;;;;;;;;;;;;;;;;4167092;28;20444;-69
2024/02/10 01:02:57;;;;;;;;;;;;;;;;;;4166857;28;19921;-69
2024/02/10 01:04:58;;;;;;;;;;;;;;;;;;4167246;28;20289;-68
2024/02/10 01:07:01;;;;;;;;;;;;;;;;;;4175828;28;19974;-69
2024/02/10 01:09:04;;;;;;;;;;;;;;;;;;4183505;28;19921;-68
2024/02/10 01:11:11;;;;;;;;;;;;;;;;;;4183844;28;19921;-68
2024/02/10 01:13:13;;;;;;;;;;;;;;;;;;4183700;28;19927;-69
2024/02/10 01:15:16;;;;;;;;;;;;;;;;;;4183495;28;19978;-68
2024/02/10 01:17:18;;;;;;;;;;;;;;;;;;4175453;28;19928;-69
2024/02/10 01:19:20;;;;;;;;;;;;;;;;;;4166806;28;20357;-63
2024/02/10 01:21:22;;;;;;;;;;;;;;;;;;4166895;28;19929;-69
2024/02/10 01:23:25;;;;;;;;;;;;;;;;;;4166812;28;20003;-69
2024/02/10 01:25:30;;;;;;;;;;;;;;;;;;4166824;28;19925;-69
2024/02/10 01:27:32;;;;;;;;;;;;;;;;;;4167088;28;19921;-68
2024/02/10 01:29:34;;;;;;;;;;;;;;;;;;4182116;28;19921;-68
2024/02/10 01:31:36;;;;;;;;;;;;;;;;;;4181970;28;19958;-61
2024/02/10 01:33:37;;;;;;;;;;;;;;;;;;4166825;28;19924;-62
2024/02/10 01:35:39;;;;;;;;;;;;;;;;;;4166526;28;19975;-62
2024/02/10 01:37:40;;;;;;;;;;;;;;;;;;4166806;28;19925;-64
2024/02/10 01:39:42;;;;;;;;;;;;;;;;;;4181874;28;19924;-62
2024/02/10 01:41:43;;;;;;;;;;;;;;;;;;4166718;28;20016;-62
2024/02/10 01:43:45;;;;;;;;;;;;;;;;;;4166544;28;19924;-62
2024/02/10 01:45:50;;;;;;;;;;;;;;;;;;4166544;28;19960;-62
2024/02/10 01:47:51;;;;;;;;;;;;;;;;;;4166326;28;20405;-63
2024/02/10 01:49:53;;;;;;;;;;;;;;;;;;4166205;28;20020;-62
2024/02/10 01:51:54;;;;;;;;;;;;;;;;;;4181146;28;19928;-62
2024/02/10 01:53:56;;;;;;;;;;;;;;;;;;4165033;28;19921;-62
2024/02/10 01:55:58;;;;;;;;;;;;;;;;;;4164834;28;20402;-62
2024/02/10 01:57:59;;;;;;;;;;;;;;;;;;4164765;28;20008;-63
2024/02/10 02:00:01;;;;;;;;;;;;;;;;;;4164438;28;20028;-62
2024/02/10 02:02:06;;;;;;;;;;;;;;;;;;4181719;22;20392;-59
2024/02/10 02:04:09;;;;;;;;;;;;;;;;;;4174784;28;20406;-59
2024/02/10 02:06:11;;;;;;;;;;;;;;;;;;4164763;28;20338;-59
2024/02/10 02:08:12;;;;;;;;;;;;;;;;;;4164537;28;19956;-59
2024/02/10 02:10:14;;;;;;;;;;;;;;;;;;4166392;28;19979;-58
2024/02/10 02:12:15;;;;;;;;;;;;;;;;;;4166008;28;20312;-58
2024/02/10 02:14:17;;;;;;;;;;;;;;;;;;4166168;28;20388;-59
2024/02/10 02:16:20;;;;;;;;;;;;;;;;;;4166336;28;20004;-58
2024/02/10 02:18:22;;;;;;;;;;;;;;;;;;4181855;28;19940;-58
2024/02/10 02:20:24;;;;;;;;;;;;;;;;;;4182378;28;19928;-58
2024/02/10 02:22:27;;;;;;;;;;;;;;;;;;4182416;28;19960;-58
2024/02/10 02:24:29;;;;;;;;;;;;;;;;;;4182333;28;19924;-58
2024/02/10 02:26:30;;;;;;;;;;;;;;;;;;4182549;28;19924;-58
2024/02/10 02:28:31;;;;;;;;;;;;;;;;;;4181151;28;19964;-58
2024/02/10 02:30:35;;;;;;;;;;;;;;;;;;4182379;28;20395;-58
2024/02/10 02:32:38;;;;;;;;;;;;;;;;;;4182576;28;19924;-59
2024/02/10 02:34:41;;;;;;;;;;;;;;;;;;4182492;28;19975;-58
2024/02/10 02:36:42;;;;;;;;;;;;;;;;;;4182192;28;19921;-58
2024/02/10 02:38:44;;;;;;;;;;;;;;;;;;4186135;28;19925;-58
2024/02/10 02:40:45;;;;;;;;;;;;;;;;;;4191403;28;19972;-58
2024/02/10 02:42:47;;;;;;;;;;;;;;;;;;4182233;28;19924;-59
2024/02/10 02:44:48;;;;;;;;;;;;;;;;;;4182121;28;20338;-58
2024/02/10 02:46:49;;;;;;;;;;;;;;;;;;4182139;28;20035;-58
2024/02/10 02:48:53;;;;;;;;;;;;;;;;;;4182055;28;20431;-58
2024/02/10 02:50:55;;;;;;;;;;;;;;;;;;4181846;28;20324;-58
2024/02/10 02:52:59;;;;;;;;;;;;;;;;;;4181949;28;19975;-58
2024/02/10 02:55:01;;;;;;;;;;;;;;;;;;4182027;28;20399;-59
2024/02/10 02:57:04;;;;;;;;;;;;;;;;;;4181771;28;19920;-58
2024/02/10 02:59:07;;;;;;;;;;;;;;;;;;4187333;28;20364;-59
2024/02/10 03:01:09;;;;;;;;;;;;;;;;;;4198410;28;20376;-58
2024/02/10 03:03:11;;;;;;;;;;;;;;;;;;4198102;28;20333;-58
2024/02/10 03:05:12;;;;;;;;;;;;;;;;;;4198283;28;19970;-58
2024/02/10 03:07:17;;;;;;;;;;;;;;;;;;4198339;28;19957;-58
2024/02/10 03:09:19;;;;;;;;;;;;;;;;;;4198320;28;19920;-58
2024/02/10 03:11:20;;;;;;;;;;;;;;;;;;4198211;28;20018;-59
2024/02/10 03:13:24;;;;;;;;;;;;;;;;;;4198166;28;19974;-59
2024/02/10 03:15:27;;;;;;;;;;;;;;;;;;4197095;28;19920;-59
2024/02/10 03:17:30;;;;;;;;;;;;;;;;;;4198182;28;19955;-58
2024/02/10 03:19:32;;;;;;;;;;;;;;;;;;4198060;28;19930;-59
2024/02/10 03:21:35;;;;;;;;;;;;;;;;;;4198105;28;19920;-59
2024/02/10 03:23:37;;;;;;;;;;;;;;;;;;4198076;28;19920;-58
2024/02/10 03:25:42;;;;;;;;;;;;;;;;;;4197961;28;20326;-58
2024/02/10 03:27:43;;;;;;;;;;;;;;;;;;4197865;28;20372;-59
2024/02/10 03:29:45;;;;;;;;;;;;;;;;;;4198325;28;19931;-59
2024/02/10 03:31:47;;;;;;;;;;;;;;;;;;4191011;28;19929;-58
2024/02/10 03:33:48;;;;;;;;;;;;;;;;;;4181445;28;19964;-58
2024/02/10 03:35:53;;;;;;;;;;;;;;;;;;4181323;28;19938;-58
2024/02/10 03:37:55;;;;;;;;;;;;;;;;;;4181358;28;20335;-58
2024/02/10 03:39:59;;;;;;;;;;;;;;;;;;4181114;28;19983;-58
2024/02/10 03:42:03;;;;;;;;;;;;;;;;;;4181258;28;19924;-59
2024/02/10 03:44:04;;;;;;;;;;;;;;;;;;4181165;28;19924;-58
2024/02/10 03:46:06;;;;;;;;;;;;;;;;;;4181232;28;19921;-58
2024/02/10 03:48:08;;;;;;;;;;;;;;;;;;4180901;28;19967;-58
2024/02/10 03:50:10;;;;;;;;;;;;;;;;;;4180944;28;19920;-59
2024/02/10 03:52:11;;;;;;;;;;;;;;;;;;4181184;28;19991;-58
2024/02/10 03:54:12;;;;;;;;;;;;;;;;;;4179926;28;19921;-58
2024/02/10 03:56:14;;;;;;;;;;;;;;;;;;4181014;28;19921;-59
2024/02/10 03:58:17;;;;;;;;;;;;;;;;;;4180950;28;20020;-58
2024/02/10 04:00:20;;;;;;;;;;;;;;;;;;4180844;28;19921;-59
2024/02/10 04:02:22;;;;;;;;;;;;;;;;;;4180764;28;20420;-59
2024/02/10 04:04:26;;;;;;;;;;;;;;;;;;4181017;28;19925;-58
2024/02/10 04:06:28;;;;;;;;;;;;;;;;;;4181035;28;19921;-58
2024/02/10 04:08:32;;;;;;;;;;;;;;;;;;4180888;28;19921;-59
2024/02/10 04:10:33;;;;;;;;;;;;;;;;;;4180937;28;19920;-59
2024/02/10 04:12:35;;;;;;;;;;;;;;;;;;4180840;28;20015;-59
2024/02/10 04:14:36;;;;;;;;;;;;;;;;;;4180996;28;19927;-59
2024/02/10 04:16:41;;;;;;;;;;;;;;;;;;4183196;28;19975;-59
2024/02/10 04:18:43;;;;;;;;;;;;;;;;;;4197479;28;19927;-59
2024/02/10 04:20:46;;;;;;;;;;;;;;;;;;4197588;28;20394;-59
2024/02/10 04:22:48;;;;;;;;;;;;;;;;;;4197471;28;20303;-59
2024/02/10 04:24:53;;;;;;;;;;;;;;;;;;4199724;28;19924;-59
2024/02/10 04:26:54;;;;;;;;;;;;;;;;;;4201191;28;19920;-59
2024/02/10 04:28:55;;;;;;;;;;;;;;;;;;4186973;28;19925;-58
2024/02/10 04:30:57;;;;;;;;;;;;;;;;;;4184069;28;20299;-59
2024/02/10 04:32:58;;;;;;;;;;;;;;;;;;4184082;28;19925;-59
2024/02/10 04:35:00;;;;;;;;;;;;;;;;;;4183970;28;20296;-59
2024/02/10 04:37:01;;;;;;;;;;;;;;;;;;4184312;28;20261;-59
2024/02/10 04:39:03;;;;;;;;;;;;;;;;;;4183917;28;19943;-59
2024/02/10 04:41:04;;;;;;;;;;;;;;;;;;4184282;28;19921;-59
2024/02/10 04:43:06;;;;;;;;;;;;;;;;;;4183976;28;19978;-58
2024/02/10 04:45:08;;;;;;;;;;;;;;;;;;4184068;28;20315;-59
2024/02/10 04:47:09;;;;;;;;;;;;;;;;;;4183832;28;19971;-59
2024/02/10 04:49:11;;;;;;;;;;;;;;;;;;4183658;28;19924;-59
2024/02/10 04:51:12;;;;;;;;;;;;;;;;;;4183648;28;19924;-60
2024/02/10 04:53:14;;;;;;;;;;;;;;;;;;4183704;28;19925;-59
2024/02/10 04:55:16;;;;;;;;;;;;;;;;;;4183768;28;19924;-60
2024/02/10 04:57:18;;;;;;;;;;;;;;;;;;4183654;28;19967;-59
2024/02/10 04:59:26;;;;;;;;;;;;;;;;;;4183761;28;19928;-60
2024/02/10 05:01:27;;;;;;;;;;;;;;;;;;4183939;28;20295;-59
2024/02/10 05:03:29;;;;;;;;;;;;;;;;;;4183624;28;19921;-59
2024/02/10 05:05:30;;;;;;;;;;;;;;;;;;4183703;28;20023;-59
2024/02/10 05:07:33;;;;;;;;;;;;;;;;;;4183347;28;20422;-59
2024/02/10 05:09:35;;;;;;;;;;;;;;;;;;4183560;28;19944;-59
2024/02/10 05:11:36;;;;;;;;;;;;;;;;;;4183519;28;20335;-59
2024/02/10 05:13:38;;;;;;;;;;;;;;;;;;4183555;28;20008;-59
2024/02/10 05:15:39;;;;;;;;;;;;;;;;;;4184777;28;20074;-59
2024/02/10 05:17:44;;;;;;;;;;;;;;;;;;4188969;28;19924;-59
2024/02/10 05:19:45;;;;;;;;;;;;;;;;;;4183376;28;19928;-59
2024/02/10 05:21:47;;;;;;;;;;;;;;;;;;4183348;28;20339;-59
2024/02/10 05:23:49;;;;;;;;;;;;;;;;;;4183339;28;20035;-59
2024/02/10 05:25:50;;;;;;;;;;;;;;;;;;4183316;28;19920;-59
2024/02/10 05:27:52;;;;;;;;;;;;;;;;;;4183164;28;20011;-59
2024/02/10 05:29:56;;;;;;;;;;;;;;;;;;4183320;28;19928;-61
2024/02/10 05:31:58;;;;;;;;;;;;;;;;;;4183158;28;19924;-59
2024/02/10 05:33:59;;;;;;;;;;;;;;;;;;4182118;28;19924;-59
2024/02/10 05:36:01;;;;;;;;;;;;;;;;;;4182660;28;19925;-59
2024/02/10 05:38:02;;;;;;;;;;;;;;;;;;4164701;28;20315;-60
2024/02/10 05:40:05;;;;;;;;;;;;;;;;;;4183398;28;20011;-59
2024/02/10 05:42:08;;;;;;;;;;;;;;;;;;4183213;28;20379;-59
2024/02/10 05:44:12;;;;;;;;;;;;;;;;;;4181885;28;19920;-59
2024/02/10 05:46:15;;;;;;;;;;;;;;;;;;4183083;28;19925;-59
2024/02/10 05:48:30;;;;;;;;;;;;;;;;;;4183015;28;20387;-59
2024/02/10 05:50:32;;;;;;;;;;;;;;;;;;4182782;28;20281;-60
2024/02/10 05:52:35;;;;;;;;;;;;;;;;;;4182962;28;19951;-60
2024/02/10 05:54:40;;;;;;;;;;;;;;;;;;4182931;28;19925;-59
2024/02/10 05:56:43;;;;;;;;;;;;;;;;;;4182871;28;19925;-60
2024/02/10 05:58:45;;;;;;;;;;;;;;;;;;4182708;28;19924;-60
2024/02/10 06:00:47;;;;;;;;;;;;;;;;;;4183019;28;19928;-60
2024/02/10 06:02:48;;;;;;;;;;;;;;;;;;4182667;28;19925;-60
2024/02/10 06:04:50;;;;;;;;;;;;;;;;;;4182764;28;19927;-59
2024/02/10 06:06:52;;;;;;;;;;;;;;;;;;4182699;28;19925;-59
2024/02/10 06:08:55;;;;;;;;;;;;;;;;;;4182618;28;20291;-59
2024/02/10 06:10:57;;;;;;;;;;;;;;;;;;4182557;28;19983;-59
2024/02/10 06:12:59;;;;;;;;;;;;;;;;;;4182639;28;19930;-60
2024/02/10 06:15:00;;;;;;;;;;;;;;;;;;4182658;28;20384;-60
2024/02/10 06:17:02;;;;;;;;;;;;;;;;;;4188342;28;19950;-59
2024/02/10 06:19:04;;;;;;;;;;;;;;;;;;4197913;28;19924;-60
2024/02/10 06:21:06;;;;;;;;;;;;;;;;;;4192958;28;20302;-60
2024/02/10 06:23:07;;;;;;;;;;;;;;;;;;4182515;28;19924;-59
2024/02/10 06:25:11;;;;;;;;;;;;;;;;;;4182459;28;19931;-59
2024/02/10 06:27:13;;;;;;;;;;;;;;;;;;4182317;28;19927;-59
2024/02/10 06:29:15;;;;;;;;;;;;;;;;;;4182110;28;20451;-60
2024/02/10 06:31:18;;;;;;;;;;;;;;;;;;4181259;28;19928;-59
2024/02/10 06:33:19;;;;;;;;;;;;;;;;;;4177805;28;19921;-59
2024/02/10 06:35:21;;;;;;;;;;;;;;;;;;4182286;28;20303;-59
2024/02/10 06:37:25;;;;;;;;;;;;;;;;;;4182135;28;19924;-60
2024/02/10 06:39:27;;;;;;;;;;;;;;;;;;4166035;28;20431;-59
2024/02/10 06:41:28;;;;;;;;;;;;;;;;;;4165950;28;20004;-59
2024/02/10 06:43:34;;;;;;;;;;;;;;;;;;4166150;28;19921;-59
2024/02/10 06:45:36;;;;;;;;;;;;;;;;;;4182167;28;20265;-59
2024/02/10 06:47:38;;;;;;;;;;;;;;;;;;4181496;28;19925;-60
2024/02/10 06:49:39;;;;;;;;;;;;;;;;;;4181702;28;20376;-59
2024/02/10 06:51:42;;;;;;;;;;;;;;;;;;4181909;28;20007;-60
2024/02/10 06:53:43;;;;;;;;;;;;;;;;;;4181770;28;19920;-59
2024/02/10 06:55:45;;;;;;;;;;;;;;;;;;4181876;28;20011;-59
2024/02/10 06:57:48;;;;;;;;;;;;;;;;;;4181780;28;19925;-59
2024/02/10 06:59:49;;;;;;;;;;;;;;;;;;4181769;28;19920;-59
2024/02/10 07:01:54;;;;;;;;;;;;;;;;;;4181750;28;19921;-59
2024/02/10 07:03:56;;;;;;;;;;;;;;;;;;4181822;28;20363;-59
2024/02/10 07:05:58;;;;;;;;;;;;;;;;;;4182016;28;19964;-59
2024/02/10 07:08:00;;;;;;;;;;;;;;;;;;4181802;28;20342;-59
2024/02/10 07:10:01;;;;;;;;;;;;;;;;;;4181448;28;20007;-59
2024/02/10 07:12:03;;;;;;;;;;;;;;;;;;4181831;28;19928;-60
2024/02/10 07:14:08;;;;;;;;;;;;;;;;;;4181486;28;20395;-59
2024/02/10 07:16:09;;;;;;;;;;;;;;;;;;4181504;28;19925;-59
2024/02/10 07:18:10;;;;;;;;;;;;;;;;;;4181472;28;19924;-59
2024/02/10 07:20:18;;;;;;;;;;;;;;;;;;4181405;28;19963;-59
2024/02/10 07:22:20;;;;;;;;;;;;;;;;;;4181475;28;20458;-60
2024/02/10 07:24:23;;;;;;;;;;;;;;;;;;4179358;28;20011;-59
2024/02/10 07:26:24;;;;;;;;;;;;;;;;;;4174863;28;19932;-59
2024/02/10 07:28:26;;;;;;;;;;;;;;;;;;4176452;28;20027;-67
2024/02/10 07:30:28;;;;;;;;;;;;;;;;;;4181056;28;19927;-63
2024/02/10 07:32:29;;;;;;;;;;;;;;;;;;4181228;28;19990;-63
2024/02/10 07:34:31;;;;;;;;;;;;;;;;;;4180243;28;19959;-63
2024/02/10 07:36:37;;;;;;;;;;;;;;;;;;4181324;28;19960;-63
2024/02/10 07:38:39;;;;;;;;;;;;;;;;;;4174897;28;19920;-63
2024/02/10 07:40:40;;;;;;;;;;;;;;;;;;4182072;28;20326;-63
2024/02/10 07:42:42;;;;;;;;;;;;;;;;;;4181208;28;19921;-63
2024/02/10 07:44:44;;;;;;;;;;;;;;;;;;4180830;28;20450;-63
2024/02/10 07:46:45;;;;;;;;;;;;;;;;;;4180888;28;20635;-64
2024/02/10 07:48:48;;;;;;;;;;;;;;;;;;4180572;28;20285;-63
2024/02/10 07:50:52;;;;;;;;;;;;;;;;;;4180640;28;19921;-64
2024/02/10 07:52:54;;;;;;;;;;;;;;;;;;4180603;28;19927;-64
2024/02/10 07:54:56;;;;;;;;;;;;;;;;;;4180790;28;20015;-64
2024/02/10 07:56:58;;;;;;;;;;;;;;;;;;4180291;28;19932;-64
2024/02/10 07:59:02;;;;;;;;;;;;;;;;;;4179355;28;19963;-64
2024/02/10 08:01:05;;;;;;;;;;;;;;;;;;4177784;28;19932;-64
2024/02/10 08:03:06;;;;;;;;;;;;;;;;;;4180038;28;19927;-64
2024/02/10 08:05:08;;;;;;;;;;;;;;;;;;4178464;28;19925;-64
2024/02/10 08:07:09;;;;;;;;;;;;;;;;;;4177976;28;20308;-64
2024/02/10 08:09:11;;;;;;;;;;;;;;;;;;4178882;28;20395;-64
2024/02/10 08:11:12;;;;;;;;;;;;;;;;;;4176701;28;19925;-64
2024/02/10 08:13:14;;;;;;;;;;;;;;;;;;4178507;28;19921;-64
2024/02/10 08:15:15;;;;;;;;;;;;;;;;;;4179986;28;20346;-64
2024/02/10 08:17:17;;;;;;;;;;;;;;;;;;4178354;28;20421;-64
2024/02/10 08:19:18;;;;;;;;;;;;;;;;;;4177862;28;19929;-64
2024/02/10 08:21:20;;;;;;;;;;;;;;;;;;4176655;28;19924;-65
2024/02/10 08:23:23;;;;;;;;;;;;;;;;;;4180196;28;19921;-64
2024/02/10 08:25:27;;;;;;;;;;;;;;;;;;4180194;28;19920;-64
2024/02/10 08:27:30;;;;;;;;;;;;;;;;;;4180750;28;19931;-64
2024/02/10 08:29:33;;;;;;;;;;;;;;;;;;4179446;28;19983;-64
2024/02/10 08:31:36;;;;;;;;;;;;;;;;;;4180629;28;19927;-64
2024/02/10 08:33:38;;;;;;;;;;;;;;;;;;4180712;28;19932;-64
2024/02/10 08:35:40;;;;;;;;;;;;;;;;;;4180672;28;19931;-64
2024/02/10 08:37:42;;;;;;;;;;;;;;;;;;4180627;28;19967;-64
2024/02/10 08:39:44;;;;;;;;;;;;;;;;;;4180556;28;19920;-64
2024/02/10 08:41:45;;;;;;;;;;;;;;;;;;4180621;28;20011;-65
2024/02/10 08:43:50;;;;;;;;;;;;;;;;;;4180678;28;19925;-64
2024/02/10 08:45:51;;;;;;;;;;;;;;;;;;4180597;28;19921;-65
2024/02/10 08:47:53;;;;;;;;;;;;;;;;;;4180588;28;19970;-64
2024/02/10 08:49:54;;;;;;;;;;;;;;;;;;4180244;28;19933;-65
2024/02/10 08:51:56;;;;;;;;;;;;;;;;;;4180483;28;19924;-66
2024/02/10 08:54:11;;;;;;;;;;;;;;;;;;4180346;28;19925;-66
2024/02/10 08:56:12;;;;;;;;;;;;;;;;;;4179359;28;19975;-65
2024/02/10 08:58:15;;;;;;;;;;;;;;;;;;4180162;28;19921;-65
2024/02/10 09:00:19;;;;;;;;;;;;;;;;;;4180711;28;19924;-64
2024/02/10 09:02:22;;;;;;;;;;;;;;;;;;4180286;28;19924;-64
2024/02/10 09:04:24;;;;;;;;;;;;;;;;;;4180571;28;19924;-65
2024/02/10 09:06:25;;;;;;;;;;;;;;;;;;4180363;28;19921;-66
2024/02/10 09:08:27;;;;;;;;;;;;;;;;;;4180407;28;19956;-66
2024/02/10 09:10:28;;;;;;;;;;;;;;;;;;4180677;28;20450;-66
2024/02/10 09:12:30;;;;;;;;;;;;;;;;;;4183610;28;19931;-66
2024/02/10 09:14:33;;;;;;;;;;;;;;;;;;4183546;28;19921;-65
2024/02/10 09:16:35;;;;;;;;;;;;;;;;;;4185301;28;20014;-65
2024/02/10 09:18:36;;;;;;;;;;;;;;;;;;4200025;28;20338;-64
2024/02/10 09:20:39;;;;;;;;;;;;;;;;;;4190272;28;20003;-65
2024/02/10 09:22:41;;;;;;;;;;;;;;;;;;4183300;28;20015;-65
2024/02/10 09:24:42;;;;;;;;;;;;;;;;;;4183327;28;19975;-66
2024/02/10 09:26:44;;;;;;;;;;;;;;;;;;4183281;28;19927;-66
2024/02/10 09:28:45;;;;;;;;;;;;;;;;;;4183418;28;19960;-66
2024/02/10 09:30:47;;;;;;;;;;;;;;;;;;4183308;28;20383;-65
2024/02/10 09:32:49;;;;;;;;;;;;;;;;;;4183398;28;19935;-65
2024/02/10 09:34:52;;;;;;;;;;;;;;;;;;4183235;28;19959;-65
2024/02/10 09:36:53;;;;;;;;;;;;;;;;;;4191130;28;19977;-66
2024/02/10 09:38:55;;;;;;;;;;;;;;;;;;4199601;28;19921;-66
2024/02/10 09:40:57;;;;;;;;;;;;;;;;;;4199665;28;19931;-66
2024/02/10 09:43:00;;;;;;;;;;;;;;;;;;4199611;28;19934;-64
2024/02/10 09:45:01;;;;;;;;;;;;;;;;;;4199543;28;19924;-65
2024/02/10 09:47:07;;;;;;;;;;;;;;;;;;4199556;28;19967;-64
2024/02/10 09:49:09;;;;;;;;;;;;;;;;;;4199263;28;20038;-65
2024/02/10 09:51:11;;;;;;;;;;;;;;;;;;4199637;28;19954;-65
2024/02/10 09:53:12;;;;;;;;;;;;;;;;;;4187038;28;20320;-65
2024/02/10 09:55:15;;;;;;;;;;;;;;;;;;4182760;28;20367;-65
2024/02/10 09:57:16;;;;;;;;;;;;;;;;;;4182702;28;20430;-64
2024/02/10 09:59:28;;;;;;;;;;;;;;;;;;4183018;28;19926;-65
2024/02/10 10:01:37;;;;;;;;;;;;;;;;;;4182685;28;20358;-64
2024/02/10 10:03:38;;;;;;;;;;;;;;;;;;4182726;28;19921;-65
2024/02/10 10:05:42;;;;;;;;;;;;;;;;;;4182872;28;19975;-64
2024/02/10 10:07:44;;;;;;;;;;;;;;;;;;4182638;28;19927;-65
2024/02/10 10:09:45;;;;;;;;;;;;;;;;;;4182496;28;19942;-65
2024/02/10 10:11:47;;;;;;;;;;;;;;;;;;4182819;28;19924;-64
2024/02/10 10:13:48;;;;;;;;;;;;;;;;;;4182583;28;19920;-65
2024/02/10 10:15:50;;;;;;;;;;;;;;;;;;4182268;28;19970;-64
2024/02/10 10:17:51;;;;;;;;;;;;;;;;;;4182369;28;19920;-65
2024/02/10 10:19:54;;;;;;;;;;;;;;;;;;4182454;28;20463;-65
2024/02/10 10:21:56;;;;;;;;;;;;;;;;;;4181525;28;19968;-65
2024/02/10 10:23:58;;;;;;;;;;;;;;;;;;4182457;28;19929;-65
2024/02/10 10:25:59;;;;;;;;;;;;;;;;;;4182252;28;19944;-65
2024/02/10 10:28:02;;;;;;;;;;;;;;;;;;4182337;28;19924;-66
2024/02/10 10:30:05;;;;;;;;;;;;;;;;;;4181412;28;19921;-65
2024/02/10 10:32:07;;;;;;;;;;;;;;;;;;4181872;28;19921;-65
2024/02/10 10:34:10;;;;;;;;;;;;;;;;;;4177425;28;20011;-65
2024/02/10 10:36:11;;;;;;;;;;;;;;;;;;4175689;28;20307;-65
2024/02/10 10:38:12;;;;;;;;;;;;;;;;;;4181631;28;19943;-65
2024/02/10 10:40:14;;;;;;;;;;;;;;;;;;4181462;28;19935;-65
2024/02/10 10:42:16;;;;;;;;;;;;;;;;;;4180244;28;19924;-65
2024/02/10 10:44:20;;;;;;;;;;;;;;;;;;4177532;28;19928;-65
2024/02/10 10:46:21;;;;;;;;;;;;;;;;;;4177653;28;19925;-65
2024/02/10 10:48:23;;;;;;;;;;;;;;;;;;4180797;28;20372;-65
2024/02/10 10:50:24;;;;;;;;;;;;;;;;;;4176343;28;20022;-64
2024/02/10 10:52:27;;;;;;;;;;;;;;;;;;4175404;28;19974;-65
2024/02/10 10:54:29;;;;;;;;;;;;;;;;;;4179544;28;19925;-66
2024/02/10 10:56:31;;;;;;;;;;;;;;;;;;4180799;28;20306;-66
2024/02/10 10:58:35;;;;;;;;;;;;;;;;;;4180769;28;19983;-65
2024/02/10 11:00:36;;;;;;;;;;;;;;;;;;4177837;28;19935;-66
2024/02/10 11:02:38;;;;;;;;;;;;;;;;;;4179129;28;19920;-65
2024/02/10 11:04:45;;;;;;;;;;;;;;;;;;4178350;28;19921;-65
2024/02/10 11:06:46;;;;;;;;;;;;;;;;;;4180227;28;19972;-66
2024/02/10 11:08:48;;;;;;;;;;;;;;;;;;4177963;28;19921;-63
2024/02/10 11:10:50;;;;;;;;;;;;;;;;;;4177900;28;19920;-64
2024/02/10 11:12:52;;;;;;;;;;;;;;;;;;4180087;28;19979;-65
2024/02/10 11:14:53;;;;;;;;;;;;;;;;;;4179322;28;19983;-66
2024/02/10 11:16:55;;;;;;;;;;;;;;;;;;4167026;28;19920;-65
2024/02/10 11:18:56;;;;;;;;;;;;;;;;;;4185144;28;19921;-65
2024/02/10 11:20:58;;;;;;;;;;;;;;;;;;4178608;28;19921;-65
2024/02/10 11:22:59;;;;;;;;;;;;;;;;;;4178148;28;19927;-64
2024/02/10 11:25:01;;;;;;;;;;;;;;;;;;4169879;28;20464;-64
2024/02/10 11:27:02;;;;;;;;;;;;;;;;;;4176770;28;19925;-64
2024/02/10 11:29:04;;;;;;;;;;;;;;;;;;4181277;28;19968;-63
2024/02/10 11:31:09;;;;;;;;;;;;;;;;;;4178350;28;19966;-65
2024/02/10 11:33:11;;;;;;;;;;;;;;;;;;4179128;28;19925;-65
2024/02/10 11:35:12;;;;;;;;;;;;;;;;;;4177726;28;20318;-65
2024/02/10 11:37:17;;;;;;;;;;;;;;;;;;4180854;28;20012;-65
2024/02/10 11:39:24;;;;;;;;;;;;;;;;;;4177123;28;20497;-64
2024/02/10 11:41:27;;;;;;;;;;;;;;;;;;4179394;28;20331;-63
2024/02/10 11:43:29;;;;;;;;;;;;;;;;;;4178237;28;20299;-65
2024/02/10 11:45:32;;;;;;;;;;;;;;;;;;4179215;28;20504;-66
2024/02/10 11:47:34;;;;;;;;;;;;;;;;;;4181088;28;20457;-65
2024/02/10 11:49:38;;;;;;;;;;;;;;;;;;4180452;28;19925;-66
2024/02/10 11:51:39;;;;;;;;;;;;;;;;;;4180486;28;20273;-65
2024/02/10 11:53:44;;;;;;;;;;;;;;;;;;4170758;28;20334;-65
2024/02/10 11:55:49;;;;;;;;;;;;;;;;;;4179500;28;20284;-65
2024/02/10 11:57:51;;;;;;;;;;;;;;;;;;4178182;28;19925;-65
2024/02/10 11:59:53;;;;;;;;;;;;;;;;;;4179035;28;19921;-66
2024/02/10 12:01:57;;;;;;;;;;;;;;;;;;4174132;28;19924;-66
2024/02/10 12:03:59;;;;;;;;;;;;;;;;;;4179830;28;20007;-65
2024/02/10 12:06:02;;;;;;;;;;;;;;;;;;4178361;28;19929;-65
2024/02/10 12:08:07;;;;;;;;;;;;;;;;;;4180292;28;19924;-65
2024/02/10 12:10:11;;;;;;;;;;;;;;;;;;4179387;28;20027;-66
2024/02/10 12:12:13;;;;;;;;;;;;;;;;;;4180755;28;20293;-65
2024/02/10 12:14:15;;;;;;;;;;;;;;;;;;4180930;28;19920;-65
2024/02/10 12:16:17;;;;;;;;;;;;;;;;;;4172472;28;19921;-65
2024/02/10 12:18:19;;;;;;;;;;;;;;;;;;4180821;28;19927;-66
2024/02/10 12:20:21;;;;;;;;;;;;;;;;;;4180852;28;19956;-66
2024/02/10 12:22:23;;;;;;;;;;;;;;;;;;4178967;28;20431;-65
2024/02/10 12:24:24;;;;;;;;;;;;;;;;;;4177156;28;19925;-65
2024/02/10 12:26:28;;;;;;;;;;;;;;;;;;4180686;28;19959;-65
2024/02/10 12:28:29;;;;;;;;;;;;;;;;;;4169274;28;20296;-65
2024/02/10 12:30:31;;;;;;;;;;;;;;;;;;4180721;28;19932;-66
2024/02/10 12:32:34;;;;;;;;;;;;;;;;;;4180687;28;19920;-65
2024/02/10 12:34:36;;;;;;;;;;;;;;;;;;4176171;28;19920;-65
2024/02/10 12:36:37;;;;;;;;;;;;;;;;;;4173136;28;19927;-66
2024/02/10 12:38:39;;;;;;;;;;;;;;;;;;4164246;28;19987;-65
2024/02/10 12:40:40;;;;;;;;;;;;;;;;;;4164081;28;20343;-65
2024/02/10 12:42:42;;;;;;;;;;;;;;;;;;4164384;28;19921;-66
2024/02/10 12:44:43;;;;;;;;;;;;;;;;;;4164732;28;20376;-65
2024/02/10 12:46:45;;;;;;;;;;;;;;;;;;4167606;28;19928;-66
2024/02/10 12:48:50;;;;;;;;;;;;;;;;;;4172303;28;19921;-66
2024/02/10 12:50:53;;;;;;;;;;;;;;;;;;4174552;28;19921;-61
2024/02/10 12:52:55;;;;;;;;;;;;;;;;;;4172392;28;20415;-61
2024/02/10 12:54:56;;;;;;;;;;;;;;;;;;4182305;28;19986;-61
2024/02/10 12:56:58;;;;;;;;;;;;;;;;;;4182095;28;20280;-61
2024/02/10 12:59:04;;;;;;;;;;;;;;;;;;4183718;28;20015;-62
2024/02/10 13:01:07;;;;;;;;;;;;;;;;;;4183700;28;19920;-61
2024/02/10 13:03:09;;;;;;;;;;;;;;;;;;4181651;28;19974;-61
2024/02/10 13:05:10;;;;;;;;;;;;;;;;;;4180716;28;19921;-61
2024/02/10 13:07:14;;;;;;;;;;;;;;;;;;4177726;28;20376;-61
2024/02/10 13:09:16;;;;;;;;;;;;;;;;;;4183690;28;19921;-61
2024/02/10 13:11:17;;;;;;;;;;;;;;;;;;4183516;28;19994;-62
2024/02/10 13:13:19;;;;;;;;;;;;;;;;;;4183494;28;20429;-62
2024/02/10 13:15:20;;;;;;;;;;;;;;;;;;4183869;28;19921;-61
2024/02/10 13:17:22;;;;;;;;;;;;;;;;;;4192127;28;19920;-62
2024/02/10 13:19:23;;;;;;;;;;;;;;;;;;4199981;28;19924;-62
2024/02/10 13:21:26;;;;;;;;;;;;;;;;;;4199980;28;19966;-62
2024/02/10 13:23:27;;;;;;;;;;;;;;;;;;4199844;28;19920;-62
2024/02/10 13:25:32;;;;;;;;;;;;;;;;;;4200229;28;19920;-61
2024/02/10 13:27:33;;;;;;;;;;;;;;;;;;4199843;28;20045;-61
2024/02/10 13:29:37;;;;;;;;;;;;;;;;;;4198399;28;19924;-61
2024/02/10 13:31:38;;;;;;;;;;;;;;;;;;4182969;28;20261;-62
2024/02/10 13:33:40;;;;;;;;;;;;;;;;;;4183514;28;19966;-61
2024/02/10 13:35:43;;;;;;;;;;;;;;;;;;4183159;28;19928;-61
2024/02/10 14:00:49;;;;;;;;;;;;;;;;;;4182759;28;20011;-61
2024/02/10 14:03:04;;;;;;;;;;;;;;;;;;4182543;28;19929;-61
2024/02/10 14:05:12;;;;;;;;;;;;;;;;;;4182831;28;20304;-61
2024/02/10 14:09:31;;;;;;;;;;;;;;;;;;4182662;28;19971;-61
2024/02/10 14:11:32;;;;;;;;;;;;;;;;;;4182496;28;20007;-61
2024/02/10 14:13:39;;;;;;;;;;;;;;;;;;4182560;28;20380;-61
2024/02/10 14:15:50;;;;;;;;;;;;;;;;;;4182569;28;19932;-61
2024/02/10 14:17:51;;;;;;;;;;;;;;;;;;4182662;28;19939;-61
2024/02/10 14:20:11;;;;;;;;;;;;;;;;;;4182602;28;20016;-61
2024/02/10 14:22:15;;;;;;;;;;;;;;;;;;4182831;28;19964;-61